Terminal Aerodrome Forecast
Issued by NWS

Home | Current Version | Previous Version | Text Only | Print | Product List | Glossary On
Versions: 1 2 3 4 5 6 7 8 9 10 11 12 13 14 15 16
941
FTUS42 KKEY 252341
TAFMTH
TAF
KMTH 252341Z 2600/2624 31005KT P6SM FEW020
      TEMPO 2600/2603 BKN029
     FM261500 VRB05KT P6SM FEW022 SCT030=

USA.gov is the U.S. government's official web portal to all federal, state and local government web resources and services.